sensor_id;sensor_type;location;lat;lon;timestamp;pressure;altitude;pressure_sealevel;temperature;humidity
64683;BME280;51107;47.652;19.016;2022-07-23T00:01:13;99778.03;;;25.29;47.38
64683;BME280;51107;47.652;19.016;2022-07-23T00:03:50;99783.94;;;25.31;46.53
64683;BME280;51107;47.652;19.016;2022-07-23T00:06:19;99773.44;;;25.24;46.74
64683;BME280;51107;47.652;19.016;2022-07-23T00:08:48;99776.56;;;25.38;46.52
64683;BME280;51107;47.652;19.016;2022-07-23T00:11:16;99779.75;;;25.35;47.33
64683;BME280;51107;47.652;19.016;2022-07-23T00:13:44;99778.72;;;25.41;47.42
64683;BME280;51107;47.652;19.016;2022-07-23T00:16:12;99782.66;;;25.33;47.02
64683;BME280;51107;47.652;19.016;2022-07-23T00:18:41;99777.94;;;25.23;48.21
64683;BME280;51107;47.652;19.016;2022-07-23T00:21:09;99773.44;;;25.24;47.84
64683;BME280;51107;47.652;19.016;2022-07-23T00:23:38;99783.25;;;25.18;48.47
64683;BME280;51107;47.652;19.016;2022-07-23T00:26:06;99780.81;;;25.17;48.49
64683;BME280;51107;47.652;19.016;2022-07-23T00:28:35;99780.13;;;25.04;48.81
64683;BME280;51107;47.652;19.016;2022-07-23T00:31:04;99776.78;;;24.92;50.81
64683;BME280;51107;47.652;19.016;2022-07-23T00:33:32;99782.25;;;24.85;50.83
64683;BME280;51107;47.652;19.016;2022-07-23T00:36:00;99781.06;;;24.76;51.31
64683;BME280;51107;47.652;19.016;2022-07-23T00:38:29;99784.09;;;24.85;50.65
64683;BME280;51107;47.652;19.016;2022-07-23T00:40:57;99789.44;;;24.85;50.84
64683;BME280;51107;47.652;19.016;2022-07-23T00:43:25;99798.66;;;24.77;50.89
64683;BME280;51107;47.652;19.016;2022-07-23T00:45:54;99794.47;;;24.64;51.08
64683;BME280;51107;47.652;19.016;2022-07-23T00:48:22;99794.53;;;24.52;51.16
64683;BME280;51107;47.652;19.016;2022-07-23T00:50:50;99792.50;;;24.42;51.73
64683;BME280;51107;47.652;19.016;2022-07-23T00:53:19;99800.91;;;24.51;51.08
64683;BME280;51107;47.652;19.016;2022-07-23T00:55:48;99796.22;;;24.41;51.00
64683;BME280;51107;47.652;19.016;2022-07-23T00:58:17;99793.16;;;24.33;50.72
64683;BME280;51107;47.652;19.016;2022-07-23T01:00:46;99785.38;;;24.14;51.88
64683;BME280;51107;47.652;19.016;2022-07-23T01:03:15;99783.16;;;24.23;51.17
64683;BME280;51107;47.652;19.016;2022-07-23T01:05:44;99783.47;;;24.27;51.51
64683;BME280;51107;47.652;19.016;2022-07-23T01:08:13;99781.69;;;24.32;50.89
64683;BME280;51107;47.652;19.016;2022-07-23T01:10:41;99779.81;;;24.16;51.75
64683;BME280;51107;47.652;19.016;2022-07-23T01:13:10;99778.22;;;24.15;51.88
64683;BME280;51107;47.652;19.016;2022-07-23T01:15:39;99786.41;;;24.13;50.85
64683;BME280;51107;47.652;19.016;2022-07-23T01:18:08;99786.22;;;24.15;50.50
64683;BME280;51107;47.652;19.016;2022-07-23T01:20:37;99783.62;;;23.91;52.77
64683;BME280;51107;47.652;19.016;2022-07-23T01:23:05;99788.66;;;23.75;53.28
64683;BME280;51107;47.652;19.016;2022-07-23T01:25:34;99783.19;;;23.82;53.96
64683;BME280;51107;47.652;19.016;2022-07-23T01:28:02;99785.50;;;23.90;52.13
64683;BME280;51107;47.652;19.016;2022-07-23T01:30:31;99785.44;;;23.73;53.05
64683;BME280;51107;47.652;19.016;2022-07-23T01:33:00;99796.25;;;23.84;52.10
64683;BME280;51107;47.652;19.016;2022-07-23T01:35:29;99798.88;;;23.67;52.89
64683;BME280;51107;47.652;19.016;2022-07-23T01:37:57;99794.53;;;23.49;52.84
64683;BME280;51107;47.652;19.016;2022-07-23T01:40:26;99789.88;;;23.56;53.06
64683;BME280;51107;47.652;19.016;2022-07-23T01:42:55;99788.88;;;23.45;54.66
64683;BME280;51107;47.652;19.016;2022-07-23T01:45:24;99793.50;;;23.38;53.92
64683;BME280;51107;47.652;19.016;2022-07-23T01:47:53;99796.09;;;23.62;53.16
64683;BME280;51107;47.652;19.016;2022-07-23T01:50:22;99794.28;;;23.50;54.02
64683;BME280;51107;47.652;19.016;2022-07-23T01:52:52;99793.34;;;23.56;53.46
64683;BME280;51107;47.652;19.016;2022-07-23T01:55:20;99783.84;;;23.20;52.77
64683;BME280;51107;47.652;19.016;2022-07-23T01:57:49;99786.94;;;23.17;51.15
64683;BME280;51107;47.652;19.016;2022-07-23T02:00:18;99781.19;;;23.20;50.92
64683;BME280;51107;47.652;19.016;2022-07-23T02:02:47;99779.69;;;23.12;50.92
64683;BME280;51107;47.652;19.016;2022-07-23T02:05:15;99781.06;;;23.15;50.31
64683;BME280;51107;47.652;19.016;2022-07-23T02:07:45;99777.47;;;23.21;49.92
64683;BME280;51107;47.652;19.016;2022-07-23T02:10:13;99781.75;;;23.22;52.45
64683;BME280;51107;47.652;19.016;2022-07-23T02:12:41;99776.19;;;23.23;50.06
64683;BME280;51107;47.652;19.016;2022-07-23T02:15:10;99775.53;;;23.04;50.75
64683;BME280;51107;47.652;19.016;2022-07-23T02:17:41;99781.53;;;22.76;51.72
64683;BME280;51107;47.652;19.016;2022-07-23T02:20:11;99774.13;;;22.66;52.78
64683;BME280;51107;47.652;19.016;2022-07-23T02:22:39;99777.34;;;22.68;52.78
64683;BME280;51107;47.652;19.016;2022-07-23T02:25:10;99776.31;;;22.69;52.86
64683;BME280;51107;47.652;19.016;2022-07-23T02:27:38;99772.84;;;22.81;52.75
64683;BME280;51107;47.652;19.016;2022-07-23T02:30:07;99766.16;;;22.78;53.02
64683;BME280;51107;47.652;19.016;2022-07-23T02:32:36;99778.28;;;22.74;53.14
64683;BME280;51107;47.652;19.016;2022-07-23T02:35:05;99779.78;;;22.82;52.89
64683;BME280;51107;47.652;19.016;2022-07-23T02:37:33;99775.88;;;22.84;52.43
64683;BME280;51107;47.652;19.016;2022-07-23T02:40:02;99773.91;;;22.92;52.25
64683;BME280;51107;47.652;19.016;2022-07-23T02:42:31;99786.72;;;22.95;52.11
64683;BME280;51107;47.652;19.016;2022-07-23T02:45:00;99781.41;;;22.95;52.05
64683;BME280;51107;47.652;19.016;2022-07-23T02:47:29;99787.28;;;22.85;52.63
64683;BME280;51107;47.652;19.016;2022-07-23T02:49:57;99783.25;;;22.70;53.67
64683;BME280;51107;47.652;19.016;2022-07-23T02:52:26;99784.66;;;22.73;53.80
64683;BME280;51107;47.652;19.016;2022-07-23T02:54:54;99791.00;;;22.84;52.99
64683;BME280;51107;47.652;19.016;2022-07-23T02:57:22;99790.41;;;22.70;53.90
64683;BME280;51107;47.652;19.016;2022-07-23T02:59:51;99785.69;;;22.72;53.68
64683;BME280;51107;47.652;19.016;2022-07-23T03:02:19;99785.56;;;22.79;54.02
64683;BME280;51107;47.652;19.016;2022-07-23T03:04:48;99782.44;;;22.82;54.22
64683;BME280;51107;47.652;19.016;2022-07-23T03:07:18;99791.81;;;22.84;54.29
64683;BME280;51107;47.652;19.016;2022-07-23T03:09:46;99788.22;;;22.90;53.70
64683;BME280;51107;47.652;19.016;2022-07-23T03:12:15;99790.53;;;22.63;55.32
64683;BME280;51107;47.652;19.016;2022-07-23T03:14:43;99792.59;;;22.85;54.32
64683;BME280;51107;47.652;19.016;2022-07-23T03:17:11;99788.91;;;22.86;53.23
64683;BME280;51107;47.652;19.016;2022-07-23T03:19:40;99794.81;;;22.76;54.51
64683;BME280;51107;47.652;19.016;2022-07-23T03:22:08;99791.91;;;22.78;54.17
64683;BME280;51107;47.652;19.016;2022-07-23T03:24:36;99798.59;;;22.68;54.27
64683;BME280;51107;47.652;19.016;2022-07-23T03:27:26;99790.06;;;22.78;54.74
64683;BME280;51107;47.652;19.016;2022-07-23T03:29:56;99786.84;;;22.76;54.42
64683;BME280;51107;47.652;19.016;2022-07-23T03:32:25;99781.19;;;22.84;53.91
64683;BME280;51107;47.652;19.016;2022-07-23T03:34:55;99788.69;;;22.64;54.48
64683;BME280;51107;47.652;19.016;2022-07-23T03:37:25;99773.44;;;22.59;53.98
64683;BME280;51107;47.652;19.016;2022-07-23T03:39:53;99777.69;;;22.60;54.62
64683;BME280;51107;47.652;19.016;2022-07-23T03:42:21;99781.06;;;22.55;56.11
64683;BME280;51107;47.652;19.016;2022-07-23T03:44:50;99786.03;;;22.76;56.84
64683;BME280;51107;47.652;19.016;2022-07-23T03:47:18;99784.06;;;22.59;56.28
64683;BME280;51107;47.652;19.016;2022-07-23T03:49:50;99775.16;;;22.65;54.67
64683;BME280;51107;47.652;19.016;2022-07-23T03:52:18;99785.44;;;22.50;54.51
64683;BME280;51107;47.652;19.016;2022-07-23T03:54:47;99786.03;;;22.76;54.04
64683;BME280;51107;47.652;19.016;2022-07-23T03:57:16;99786.38;;;22.79;56.05
64683;BME280;51107;47.652;19.016;2022-07-23T03:59:44;99789.63;;;22.81;56.88
64683;BME280;51107;47.652;19.016;2022-07-23T04:02:13;99790.66;;;22.92;56.39
64683;BME280;51107;47.652;19.016;2022-07-23T04:04:41;99783.59;;;23.10;57.18
64683;BME280;51107;47.652;19.016;2022-07-23T04:07:09;99786.81;;;23.23;57.91
64683;BME280;51107;47.652;19.016;2022-07-23T04:09:38;99787.41;;;23.26;57.06
64683;BME280;51107;47.652;19.016;2022-07-23T04:12:13;99793.38;;;23.45;55.11
64683;BME280;51107;47.652;19.016;2022-07-23T04:14:42;99795.87;;;23.63;54.28
64683;BME280;51107;47.652;19.016;2022-07-23T04:17:11;99794.81;;;23.64;53.98
64683;BME280;51107;47.652;19.016;2022-07-23T04:19:40;99800.63;;;23.61;52.61
64683;BME280;51107;47.652;19.016;2022-07-23T04:22:11;99799.94;;;23.54;54.77
64683;BME280;51107;47.652;19.016;2022-07-23T04:24:40;99803.94;;;23.68;52.83
64683;BME280;51107;47.652;19.016;2022-07-23T04:27:08;99802.19;;;23.74;52.82
64683;BME280;51107;47.652;19.016;2022-07-23T04:29:37;99802.75;;;23.76;54.41
64683;BME280;51107;47.652;19.016;2022-07-23T04:32:05;99800.44;;;23.80;55.89
64683;BME280;51107;47.652;19.016;2022-07-23T04:34:34;99796.63;;;23.75;53.66
64683;BME280;51107;47.652;19.016;2022-07-23T04:37:03;99795.34;;;23.78;54.62
64683;BME280;51107;47.652;19.016;2022-07-23T04:39:31;99806.41;;;23.87;54.16
64683;BME280;51107;47.652;19.016;2022-07-23T04:42:00;99807.47;;;23.86;52.60
64683;BME280;51107;47.652;19.016;2022-07-23T04:44:29;99810.59;;;23.83;53.21
64683;BME280;51107;47.652;19.016;2022-07-23T04:46:58;99812.66;;;23.92;52.85
64683;BME280;51107;47.652;19.016;2022-07-23T04:49:26;99808.97;;;23.94;52.71
64683;BME280;51107;47.652;19.016;2022-07-23T04:51:54;99819.28;;;23.90;52.97
64683;BME280;51107;47.652;19.016;2022-07-23T04:54:23;99817.19;;;23.92;53.81
64683;BME280;51107;47.652;19.016;2022-07-23T04:56:51;99822.50;;;23.80;52.69
64683;BME280;51107;47.652;19.016;2022-07-23T04:59:19;99819.16;;;23.85;52.87
64683;BME280;51107;47.652;19.016;2022-07-23T05:01:49;99814.09;;;23.83;51.78
64683;BME280;51107;47.652;19.016;2022-07-23T05:04:18;99811.31;;;23.78;52.05
64683;BME280;51107;47.652;19.016;2022-07-23T05:06:47;99820.31;;;23.89;52.50
64683;BME280;51107;47.652;19.016;2022-07-23T05:09:15;99808.16;;;23.93;52.41
64683;BME280;51107;47.652;19.016;2022-07-23T05:11:44;99809.53;;;23.96;53.23
64683;BME280;51107;47.652;19.016;2022-07-23T05:14:13;99803.84;;;24.04;54.19
64683;BME280;51107;47.652;19.016;2022-07-23T05:16:42;99810.22;;;24.03;53.23
64683;BME280;51107;47.652;19.016;2022-07-23T05:19:11;99807.56;;;24.20;52.87
64683;BME280;51107;47.652;19.016;2022-07-23T05:21:39;99805.47;;;24.22;52.26
64683;BME280;51107;47.652;19.016;2022-07-23T05:24:08;99807.75;;;24.30;53.38
64683;BME280;51107;47.652;19.016;2022-07-23T05:26:36;99802.09;;;24.43;52.85
64683;BME280;51107;47.652;19.016;2022-07-23T05:29:05;99804.84;;;24.49;52.76
64683;BME280;51107;47.652;19.016;2022-07-23T05:31:35;99811.88;;;24.55;53.04
64683;BME280;51107;47.652;19.016;2022-07-23T05:34:03;99811.81;;;24.67;52.30
64683;BME280;51107;47.652;19.016;2022-07-23T05:36:33;99812.94;;;24.71;52.25
64683;BME280;51107;47.652;19.016;2022-07-23T05:39:03;99811.75;;;24.79;51.90
64683;BME280;51107;47.652;19.016;2022-07-23T05:41:34;99808.91;;;24.85;51.98
64683;BME280;51107;47.652;19.016;2022-07-23T05:44:03;99806.62;;;24.94;51.81
64683;BME280;51107;47.652;19.016;2022-07-23T05:46:31;99802.00;;;25.06;51.55
64683;BME280;51107;47.652;19.016;2022-07-23T05:49:01;99800.78;;;25.14;51.49
64683;BME280;51107;47.652;19.016;2022-07-23T05:51:32;99812.38;;;25.25;51.53
64683;BME280;51107;47.652;19.016;2022-07-23T05:54:01;99802.47;;;25.42;50.27
64683;BME280;51107;47.652;19.016;2022-07-23T05:56:30;99806.91;;;25.54;49.68
64683;BME280;51107;47.652;19.016;2022-07-23T05:58:58;99800.63;;;25.65;49.73
64683;BME280;51107;47.652;19.016;2022-07-23T06:01:27;99794.09;;;25.78;48.30
64683;BME280;51107;47.652;19.016;2022-07-23T06:03:56;99794.44;;;25.87;46.48
64683;BME280;51107;47.652;19.016;2022-07-23T06:06:25;99789.84;;;26.04;47.33
64683;BME280;51107;47.652;19.016;2022-07-23T06:08:53;99792.91;;;26.18;47.43
64683;BME280;51107;47.652;19.016;2022-07-23T06:11:21;99794.91;;;26.33;47.63
64683;BME280;51107;47.652;19.016;2022-07-23T06:13:50;99796.31;;;26.46;47.59
64683;BME280;51107;47.652;19.016;2022-07-23T06:16:19;99786.81;;;26.60;45.17
64683;BME280;51107;47.652;19.016;2022-07-23T06:18:48;99780.25;;;26.73;47.21
64683;BME280;51107;47.652;19.016;2022-07-23T06:21:16;99782.47;;;26.87;44.25
64683;BME280;51107;47.652;19.016;2022-07-23T06:24:05;99789.22;;;26.94;45.86
64683;BME280;51107;47.652;19.016;2022-07-23T06:26:33;99790.59;;;27.07;43.91
64683;BME280;51107;47.652;19.016;2022-07-23T06:29:01;99790.69;;;27.28;44.18
64683;BME280;51107;47.652;19.016;2022-07-23T06:31:31;99795.34;;;27.43;42.74
64683;BME280;51107;47.652;19.016;2022-07-23T06:33:59;99789.50;;;27.56;42.51
64683;BME280;51107;47.652;19.016;2022-07-23T06:36:27;99792.19;;;27.61;44.12
64683;BME280;51107;47.652;19.016;2022-07-23T06:38:56;99793.81;;;27.73;43.02
64683;BME280;51107;47.652;19.016;2022-07-23T06:41:24;99789.84;;;27.91;43.53
64683;BME280;51107;47.652;19.016;2022-07-23T06:43:53;99793.34;;;28.02;41.90
64683;BME280;51107;47.652;19.016;2022-07-23T06:46:21;99787.47;;;28.15;40.02
64683;BME280;51107;47.652;19.016;2022-07-23T06:48:50;99794.19;;;28.18;40.13
64683;BME280;51107;47.652;19.016;2022-07-23T06:51:19;99784.56;;;28.32;40.47
64683;BME280;51107;47.652;19.016;2022-07-23T06:53:47;99788.00;;;28.48;40.14
64683;BME280;51107;47.652;19.016;2022-07-23T06:56:16;99787.22;;;28.63;39.23
64683;BME280;51107;47.652;19.016;2022-07-23T06:58:44;99777.25;;;28.84;37.98
64683;BME280;51107;47.652;19.016;2022-07-23T07:01:13;99777.75;;;29.07;38.48
64683;BME280;51107;47.652;19.016;2022-07-23T07:03:41;99775.28;;;29.21;38.18
64683;BME280;51107;47.652;19.016;2022-07-23T07:06:10;99781.66;;;29.35;37.12
64683;BME280;51107;47.652;19.016;2022-07-23T07:08:38;99780.22;;;29.58;36.10
64683;BME280;51107;47.652;19.016;2022-07-23T07:11:07;99775.03;;;29.72;37.61
64683;BME280;51107;47.652;19.016;2022-07-23T07:13:37;99776.53;;;29.94;34.38
64683;BME280;51107;47.652;19.016;2022-07-23T07:16:06;99766.63;;;30.24;37.16
64683;BME280;51107;47.652;19.016;2022-07-23T07:18:41;99770.66;;;30.56;36.62
64683;BME280;51107;47.652;19.016;2022-07-23T07:21:09;99765.66;;;30.73;35.49
64683;BME280;51107;47.652;19.016;2022-07-23T07:23:37;99757.50;;;30.78;35.87
64683;BME280;51107;47.652;19.016;2022-07-23T07:26:06;99760.03;;;31.18;36.37
64683;BME280;51107;47.652;19.016;2022-07-23T07:28:34;99767.53;;;31.64;34.27
64683;BME280;51107;47.652;19.016;2022-07-23T07:31:02;99760.34;;;31.93;32.35
64683;BME280;51107;47.652;19.016;2022-07-23T07:33:31;99761.41;;;32.44;33.56
64683;BME280;51107;47.652;19.016;2022-07-23T07:35:59;99760.19;;;32.83;31.17
64683;BME280;51107;47.652;19.016;2022-07-23T07:38:28;99760.47;;;32.95;31.29
64683;BME280;51107;47.652;19.016;2022-07-23T07:40:57;99765.31;;;33.49;30.98
64683;BME280;51107;47.652;19.016;2022-07-23T07:43:25;99761.47;;;33.27;29.68
64683;BME280;51107;47.652;19.016;2022-07-23T07:45:53;99760.53;;;33.18;49.92
64683;BME280;51107;47.652;19.016;2022-07-23T07:48:22;99767.50;;;32.49;47.33
64683;BME280;51107;47.652;19.016;2022-07-23T07:50:50;99768.81;;;32.52;48.92
64683;BME280;51107;47.652;19.016;2022-07-23T07:53:19;99763.75;;;32.17;41.96
64683;BME280;51107;47.652;19.016;2022-07-23T07:55:47;99758.91;;;32.33;38.99
64683;BME280;51107;47.652;19.016;2022-07-23T07:58:19;99752.88;;;32.83;34.79
64683;BME280;51107;47.652;19.016;2022-07-23T08:00:47;99747.34;;;33.16;41.72
64683;BME280;51107;47.652;19.016;2022-07-23T08:03:17;99754.94;;;33.42;36.25
64683;BME280;51107;47.652;19.016;2022-07-23T08:05:46;99752.53;;;34.00;35.63
64683;BME280;51107;47.652;19.016;2022-07-23T08:08:14;99754.59;;;34.26;33.21
64683;BME280;51107;47.652;19.016;2022-07-23T08:10:44;99752.00;;;34.83;33.54
64683;BME280;51107;47.652;19.016;2022-07-23T08:13:15;99751.66;;;35.34;33.99
64683;BME280;51107;47.652;19.016;2022-07-23T08:15:44;99759.00;;;35.42;30.91
64683;BME280;51107;47.652;19.016;2022-07-23T08:18:13;99755.50;;;35.68;30.64
64683;BME280;51107;47.652;19.016;2022-07-23T08:20:42;99747.53;;;35.36;30.89
64683;BME280;51107;47.652;19.016;2022-07-23T08:23:10;99751.00;;;35.81;27.83
64683;BME280;51107;47.652;19.016;2022-07-23T08:25:42;99754.19;;;36.09;30.92
64683;BME280;51107;47.652;19.016;2022-07-23T08:28:11;99756.69;;;36.32;32.40
64683;BME280;51107;47.652;19.016;2022-07-23T08:30:43;99744.75;;;37.22;31.31
64683;BME280;51107;47.652;19.016;2022-07-23T08:33:14;99747.06;;;36.82;26.40
64683;BME280;51107;47.652;19.016;2022-07-23T08:36:02;99754.97;;;36.66;25.68
64683;BME280;51107;47.652;19.016;2022-07-23T08:38:33;99751.03;;;37.14;29.03
64683;BME280;51107;47.652;19.016;2022-07-23T08:41:02;99750.31;;;37.68;25.28
64683;BME280;51107;47.652;19.016;2022-07-23T08:43:33;99754.44;;;37.53;27.85
64683;BME280;51107;47.652;19.016;2022-07-23T08:46:04;99747.34;;;37.61;27.06
64683;BME280;51107;47.652;19.016;2022-07-23T08:48:34;99746.50;;;38.15;25.93
64683;BME280;51107;47.652;19.016;2022-07-23T08:51:07;99748.41;;;38.73;26.86
64683;BME280;51107;47.652;19.016;2022-07-23T08:53:35;99740.41;;;38.55;26.18
64683;BME280;51107;47.652;19.016;2022-07-23T08:56:06;99743.97;;;38.81;23.40
64683;BME280;51107;47.652;19.016;2022-07-23T08:58:35;99740.91;;;38.70;25.58
64683;BME280;51107;47.652;19.016;2022-07-23T09:01:03;99738.53;;;38.81;26.08
64683;BME280;51107;47.652;19.016;2022-07-23T09:03:34;99737.22;;;38.16;24.59
64683;BME280;51107;47.652;19.016;2022-07-23T09:06:03;99737.81;;;38.34;23.86
64683;BME280;51107;47.652;19.016;2022-07-23T09:08:42;99733.44;;;38.79;25.65
64683;BME280;51107;47.652;19.016;2022-07-23T09:11:12;99731.66;;;39.81;23.77
64683;BME280;51107;47.652;19.016;2022-07-23T09:13:49;99731.16;;;38.81;22.91
64683;BME280;51107;47.652;19.016;2022-07-23T09:16:25;99715.03;;;38.64;23.19
64683;BME280;51107;47.652;19.016;2022-07-23T09:21:28;99722.75;;;38.62;23.93
64683;BME280;51107;47.652;19.016;2022-07-23T09:31:45;99726.25;;;40.13;23.46
64683;BME280;51107;47.652;19.016;2022-07-23T09:34:19;99724.81;;;39.58;22.68
64683;BME280;51107;47.652;19.016;2022-07-23T09:36:56;99720.91;;;39.88;21.24
64683;BME280;51107;47.652;19.016;2022-07-23T09:39:30;99708.09;;;39.44;22.88
64683;BME280;51107;47.652;19.016;2022-07-23T09:42:20;99705.94;;;39.37;21.92
64683;BME280;51107;47.652;19.016;2022-07-23T09:44:57;99715.97;;;39.49;24.91
64683;BME280;51107;47.652;19.016;2022-07-23T09:47:28;99712.28;;;39.70;23.25
64683;BME280;51107;47.652;19.016;2022-07-23T09:50:07;99705.69;;;39.71;22.62
64683;BME280;51107;47.652;19.016;2022-07-23T09:52:45;99703.44;;;40.21;21.40
64683;BME280;51107;47.652;19.016;2022-07-23T09:55:17;99709.94;;;40.00;21.42
64683;BME280;51107;47.652;19.016;2022-07-23T09:57:47;99703.75;;;39.15;21.90
64683;BME280;51107;47.652;19.016;2022-07-23T10:00:23;99701.31;;;39.26;21.62
64683;BME280;51107;47.652;19.016;2022-07-23T10:02:53;99709.03;;;38.70;21.68
64683;BME280;51107;47.652;19.016;2022-07-23T10:05:28;99703.06;;;39.18;22.19
64683;BME280;51107;47.652;19.016;2022-07-23T10:08:03;99708.00;;;38.87;20.39
64683;BME280;51107;47.652;19.016;2022-07-23T10:10:35;99696.25;;;38.71;22.74
64683;BME280;51107;47.652;19.016;2022-07-23T10:13:06;99691.78;;;38.66;23.39
64683;BME280;51107;47.652;19.016;2022-07-23T10:15:52;99687.25;;;38.33;21.58
64683;BME280;51107;47.652;19.016;2022-07-23T10:18:23;99696.06;;;38.92;21.24
64683;BME280;51107;47.652;19.016;2022-07-23T10:20:51;99689.28;;;38.49;21.66
64683;BME280;51107;47.652;19.016;2022-07-23T10:23:44;99687.13;;;38.05;22.73
64683;BME280;51107;47.652;19.016;2022-07-23T10:26:24;99690.75;;;38.09;21.80
64683;BME280;51107;47.652;19.016;2022-07-23T10:32:00;99678.72;;;38.84;21.36
64683;BME280;51107;47.652;19.016;2022-07-23T10:34:50;99683.03;;;38.85;22.02
64683;BME280;51107;47.652;19.016;2022-07-23T10:37:32;99677.47;;;37.95;21.66
64683;BME280;51107;47.652;19.016;2022-07-23T10:40:17;99682.59;;;38.21;22.39
64683;BME280;51107;47.652;19.016;2022-07-23T11:04:53;99642.25;;;38.36;22.74
64683;BME280;51107;47.652;19.016;2022-07-23T11:07:22;99652.00;;;38.49;22.27
64683;BME280;51107;47.652;19.016;2022-07-23T11:09:50;99646.66;;;38.03;22.84
64683;BME280;51107;47.652;19.016;2022-07-23T11:14:58;99643.69;;;38.09;22.86
64683;BME280;51107;47.652;19.016;2022-07-23T11:17:27;99648.25;;;38.17;23.19
64683;BME280;51107;47.652;19.016;2022-07-23T11:25:29;99623.66;;;38.01;22.91
64683;BME280;51107;47.652;19.016;2022-07-23T11:28:16;99624.72;;;37.75;23.18
64683;BME280;51107;47.652;19.016;2022-07-23T11:30:45;99620.09;;;37.30;23.60
64683;BME280;51107;47.652;19.016;2022-07-23T11:35:48;99619.72;;;37.52;23.93
64683;BME280;51107;47.652;19.016;2022-07-23T11:38:22;99621.34;;;37.32;23.58
64683;BME280;51107;47.652;19.016;2022-07-23T11:40:52;99611.97;;;37.42;22.50
64683;BME280;51107;47.652;19.016;2022-07-23T11:43:22;99621.38;;;38.03;22.37
64683;BME280;51107;47.652;19.016;2022-07-23T11:45:53;99612.09;;;37.92;22.70
64683;BME280;51107;47.652;19.016;2022-07-23T11:48:23;99605.63;;;37.96;21.83
64683;BME280;51107;47.652;19.016;2022-07-23T11:50:54;99604.41;;;37.48;21.66
64683;BME280;51107;47.652;19.016;2022-07-23T11:53:24;99600.75;;;37.31;21.97
64683;BME280;51107;47.652;19.016;2022-07-23T11:55:54;99600.56;;;37.15;23.17
64683;BME280;51107;47.652;19.016;2022-07-23T11:58:23;99595.31;;;37.31;23.19
64683;BME280;51107;47.652;19.016;2022-07-23T12:00:55;99601.66;;;37.35;22.18
64683;BME280;51107;47.652;19.016;2022-07-23T12:03:23;99587.91;;;37.19;22.76
64683;BME280;51107;47.652;19.016;2022-07-23T12:05:56;99584.09;;;37.33;22.50
64683;BME280;51107;47.652;19.016;2022-07-23T12:08:25;99580.34;;;37.25;23.54
64683;BME280;51107;47.652;19.016;2022-07-23T12:10:53;99581.09;;;37.13;22.93
64683;BME280;51107;47.652;19.016;2022-07-23T12:13:22;99569.53;;;37.16;22.25
64683;BME280;51107;47.652;19.016;2022-07-23T12:15:53;99571.00;;;37.14;22.44
64683;BME280;51107;47.652;19.016;2022-07-23T12:18:24;99570.03;;;36.97;22.58
64683;BME280;51107;47.652;19.016;2022-07-23T12:20:57;99557.94;;;36.95;23.51
64683;BME280;51107;47.652;19.016;2022-07-23T12:23:27;99562.06;;;37.13;23.17
64683;BME280;51107;47.652;19.016;2022-07-23T12:26:01;99553.78;;;37.10;23.52
64683;BME280;51107;47.652;19.016;2022-07-23T12:28:32;99540.31;;;37.34;22.69
64683;BME280;51107;47.652;19.016;2022-07-23T12:31:05;99544.97;;;37.46;21.91
64683;BME280;51107;47.652;19.016;2022-07-23T12:33:37;99540.41;;;36.92;23.02
64683;BME280;51107;47.652;19.016;2022-07-23T12:36:08;99548.16;;;36.81;22.66
64683;BME280;51107;47.652;19.016;2022-07-23T12:38:42;99548.47;;;37.01;22.40
64683;BME280;51107;47.652;19.016;2022-07-23T12:41:11;99537.03;;;36.74;22.50
64683;BME280;51107;47.652;19.016;2022-07-23T12:43:42;99547.62;;;36.88;25.10
64683;BME280;51107;47.652;19.016;2022-07-23T12:46:18;99548.59;;;36.83;23.09
64683;BME280;51107;47.652;19.016;2022-07-23T12:51:22;99535.63;;;37.22;22.14
64683;BME280;51107;47.652;19.016;2022-07-23T12:53:58;99533.31;;;37.12;22.81
64683;BME280;51107;47.652;19.016;2022-07-23T12:56:29;99535.59;;;37.10;22.97
64683;BME280;51107;47.652;19.016;2022-07-23T12:59:04;99529.84;;;37.24;22.65
64683;BME280;51107;47.652;19.016;2022-07-23T13:01:40;99519.34;;;37.22;22.55
64683;BME280;51107;47.652;19.016;2022-07-23T13:04:12;99520.00;;;37.19;22.13
64683;BME280;51107;47.652;19.016;2022-07-23T13:09:15;99512.91;;;36.94;22.83
64683;BME280;51107;47.652;19.016;2022-07-23T13:11:46;99518.34;;;36.94;23.24
64683;BME280;51107;47.652;19.016;2022-07-23T13:14:16;99511.22;;;37.01;23.33
64683;BME280;51107;47.652;19.016;2022-07-23T13:16:49;99518.59;;;37.01;24.05
64683;BME280;51107;47.652;19.016;2022-07-23T13:19:19;99518.03;;;36.74;23.90
64683;BME280;51107;47.652;19.016;2022-07-23T13:21:52;99504.41;;;36.41;24.21
64683;BME280;51107;47.652;19.016;2022-07-23T13:24:21;99504.84;;;36.21;23.93
64683;BME280;51107;47.652;19.016;2022-07-23T13:26:49;99501.50;;;36.16;24.49
64683;BME280;51107;47.652;19.016;2022-07-23T13:29:20;99500.06;;;36.18;24.58
64683;BME280;51107;47.652;19.016;2022-07-23T13:31:49;99498.63;;;36.42;24.88
64683;BME280;51107;47.652;19.016;2022-07-23T13:34:18;99500.53;;;36.63;24.91
64683;BME280;51107;47.652;19.016;2022-07-23T13:36:47;99484.97;;;36.30;23.43
64683;BME280;51107;47.652;19.016;2022-07-23T13:39:15;99485.78;;;36.09;24.50
64683;BME280;51107;47.652;19.016;2022-07-23T13:41:43;99489.69;;;36.20;24.15
64683;BME280;51107;47.652;19.016;2022-07-23T13:44:18;99486.38;;;36.15;24.53
64683;BME280;51107;47.652;19.016;2022-07-23T13:46:49;99482.59;;;36.07;23.89
64683;BME280;51107;47.652;19.016;2022-07-23T13:49:19;99476.00;;;36.17;24.17
64683;BME280;51107;47.652;19.016;2022-07-23T13:51:49;99479.28;;;36.01;23.85
64683;BME280;51107;47.652;19.016;2022-07-23T13:54:17;99478.09;;;35.81;24.23
64683;BME280;51107;47.652;19.016;2022-07-23T13:56:46;99477.50;;;35.84;24.49